sensor_id;sensor_type;location;lat;lon;timestamp;P1;durP1;ratioP1;P2;durP2;ratioP2
10661;SDS011;5379;51.034;7.006;2022-12-29T00:00:53;1.53;;;0.90;;
10661;SDS011;5379;51.034;7.006;2022-12-29T00:03:20;1.10;;;1.00;;
10661;SDS011;5379;51.034;7.006;2022-12-29T00:05:53;0.93;;;0.93;;
10661;SDS011;5379;51.034;7.006;2022-12-29T00:08:22;1.17;;;1.07;;
10661;SDS011;5379;51.034;7.006;2022-12-29T00:11:04;0.70;;;0.70;;
10661;SDS011;5379;51.034;7.006;2022-12-29T00:13:31;0.93;;;0.90;;
10661;SDS011;5379;51.034;7.006;2022-12-29T00:16:16;0.83;;;0.83;;
10661;SDS011;5379;51.034;7.006;2022-12-29T00:18:43;1.13;;;1.03;;
10661;SDS011;5379;51.034;7.006;2022-12-29T00:21:12;0.90;;;0.90;;
10661;SDS011;5379;51.034;7.006;2022-12-29T00:24:00;1.20;;;0.87;;
10661;SDS011;5379;51.034;7.006;2022-12-29T00:26:47;1.43;;;1.17;;
10661;SDS011;5379;51.034;7.006;2022-12-29T00:29:33;1.23;;;0.87;;
10661;SDS011;5379;51.034;7.006;2022-12-29T00:32:17;0.90;;;0.90;;
10661;SDS011;5379;51.034;7.006;2022-12-29T00:35:02;0.50;;;0.50;;
10661;SDS011;5379;51.034;7.006;2022-12-29T00:37:35;0.60;;;0.50;;
10661;SDS011;5379;51.034;7.006;2022-12-29T00:40:22;0.60;;;0.60;;
10661;SDS011;5379;51.034;7.006;2022-12-29T00:43:06;0.40;;;0.40;;
10661;SDS011;5379;51.034;7.006;2022-12-29T00:45:50;0.50;;;0.50;;
10661;SDS011;5379;51.034;7.006;2022-12-29T00:48:17;0.60;;;0.60;;
10661;SDS011;5379;51.034;7.006;2022-12-29T00:51:05;0.40;;;0.40;;
10661;SDS011;5379;51.034;7.006;2022-12-29T00:53:31;0.60;;;0.60;;
10661;SDS011;5379;51.034;7.006;2022-12-29T00:55:59;1.40;;;0.60;;
10661;SDS011;5379;51.034;7.006;2022-12-29T00:58:27;1.30;;;0.60;;
10661;SDS011;5379;51.034;7.006;2022-12-29T01:01:00;1.37;;;0.60;;
10661;SDS011;5379;51.034;7.006;2022-12-29T01:03:28;0.50;;;0.50;;
10661;SDS011;5379;51.034;7.006;2022-12-29T01:05:55;0.40;;;0.40;;
10661;SDS011;5379;51.034;7.006;2022-12-29T01:08:22;0.70;;;0.70;;
10661;SDS011;5379;51.034;7.006;2022-12-29T01:10:57;0.40;;;0.40;;
10661;SDS011;5379;51.034;7.006;2022-12-29T01:13:24;0.60;;;0.60;;
10661;SDS011;5379;51.034;7.006;2022-12-29T01:15:52;0.53;;;0.53;;
10661;SDS011;5379;51.034;7.006;2022-12-29T01:18:19;0.60;;;0.60;;
10661;SDS011;5379;51.034;7.006;2022-12-29T01:20:47;0.80;;;0.70;;
10661;SDS011;5379;51.034;7.006;2022-12-29T01:23:14;0.40;;;0.40;;
10661;SDS011;5379;51.034;7.006;2022-12-29T01:25:41;0.20;;;0.20;;
10661;SDS011;5379;51.034;7.006;2022-12-29T01:28:09;0.43;;;0.43;;
10661;SDS011;5379;51.034;7.006;2022-12-29T05:31:40;0.60;;;0.50;;
10661;SDS011;5379;51.034;7.006;2022-12-29T05:34:08;0.83;;;0.80;;
10661;SDS011;5379;51.034;7.006;2022-12-29T05:36:36;0.57;;;0.57;;
10661;SDS011;5379;51.034;7.006;2022-12-29T05:39:04;0.50;;;0.50;;
10661;SDS011;5379;51.034;7.006;2022-12-29T05:41:32;0.40;;;0.40;;
10661;SDS011;5379;51.034;7.006;2022-12-29T05:44:00;0.63;;;0.30;;
10661;SDS011;5379;51.034;7.006;2022-12-29T05:46:27;1.13;;;0.50;;
10661;SDS011;5379;51.034;7.006;2022-12-29T05:48:55;0.37;;;0.37;;
10661;SDS011;5379;51.034;7.006;2022-12-29T05:51:23;0.30;;;0.30;;
10661;SDS011;5379;51.034;7.006;2022-12-29T05:53:50;0.60;;;0.60;;
10661;SDS011;5379;51.034;7.006;2022-12-29T05:56:17;0.30;;;0.30;;
10661;SDS011;5379;51.034;7.006;2022-12-29T05:58:44;0.37;;;0.37;;
10661;SDS011;5379;51.034;7.006;2022-12-29T06:01:11;0.27;;;0.27;;
10661;SDS011;5379;51.034;7.006;2022-12-29T06:03:38;0.60;;;0.60;;
10661;SDS011;5379;51.034;7.006;2022-12-29T06:06:07;2.40;;;0.60;;
10661;SDS011;5379;51.034;7.006;2022-12-29T06:08:34;0.30;;;0.30;;
10661;SDS011;5379;51.034;7.006;2022-12-29T06:11:01;0.60;;;0.60;;
10661;SDS011;5379;51.034;7.006;2022-12-29T06:13:28;1.90;;;0.47;;
10661;SDS011;5379;51.034;7.006;2022-12-29T06:15:55;0.50;;;0.50;;
10661;SDS011;5379;51.034;7.006;2022-12-29T06:18:22;0.43;;;0.43;;
10661;SDS011;5379;51.034;7.006;2022-12-29T06:20:49;0.40;;;0.40;;
10661;SDS011;5379;51.034;7.006;2022-12-29T06:23:17;0.50;;;0.50;;
10661;SDS011;5379;51.034;7.006;2022-12-29T06:25:44;1.60;;;0.77;;
10661;SDS011;5379;51.034;7.006;2022-12-29T06:28:13;2.93;;;0.57;;
10661;SDS011;5379;51.034;7.006;2022-12-29T06:30:40;0.57;;;0.50;;
10661;SDS011;5379;51.034;7.006;2022-12-29T06:33:09;2.07;;;0.70;;
10661;SDS011;5379;51.034;7.006;2022-12-29T06:35:37;1.37;;;0.67;;
10661;SDS011;5379;51.034;7.006;2022-12-29T06:38:04;0.60;;;0.60;;
10661;SDS011;5379;51.034;7.006;2022-12-29T06:40:32;1.83;;;0.57;;
10661;SDS011;5379;51.034;7.006;2022-12-29T06:42:59;0.63;;;0.63;;
10661;SDS011;5379;51.034;7.006;2022-12-29T06:45:26;1.70;;;0.70;;
10661;SDS011;5379;51.034;7.006;2022-12-29T06:47:53;0.40;;;0.20;;
10661;SDS011;5379;51.034;7.006;2022-12-29T06:50:20;0.53;;;0.53;;
10661;SDS011;5379;51.034;7.006;2022-12-29T06:52:47;1.27;;;0.57;;
10661;SDS011;5379;51.034;7.006;2022-12-29T06:55:14;1.33;;;0.63;;
10661;SDS011;5379;51.034;7.006;2022-12-29T06:57:43;0.23;;;0.23;;
10661;SDS011;5379;51.034;7.006;2022-12-29T07:00:10;1.20;;;0.50;;
10661;SDS011;5379;51.034;7.006;2022-12-29T07:02:38;2.67;;;0.63;;
10661;SDS011;5379;51.034;7.006;2022-12-29T07:05:05;0.43;;;0.40;;
10661;SDS011;5379;51.034;7.006;2022-12-29T07:07:32;0.67;;;0.67;;
10661;SDS011;5379;51.034;7.006;2022-12-29T07:09:59;0.50;;;0.50;;
10661;SDS011;5379;51.034;7.006;2022-12-29T07:12:26;1.07;;;0.73;;
10661;SDS011;5379;51.034;7.006;2022-12-29T07:14:55;1.60;;;0.70;;
10661;SDS011;5379;51.034;7.006;2022-12-29T07:17:22;1.27;;;0.60;;
10661;SDS011;5379;51.034;7.006;2022-12-29T07:19:48;0.90;;;0.63;;
10661;SDS011;5379;51.034;7.006;2022-12-29T07:22:15;0.67;;;0.60;;
10661;SDS011;5379;51.034;7.006;2022-12-29T07:24:42;0.53;;;0.43;;
10661;SDS011;5379;51.034;7.006;2022-12-29T07:27:09;0.70;;;0.70;;
10661;SDS011;5379;51.034;7.006;2022-12-29T07:29:37;0.40;;;0.40;;
10661;SDS011;5379;51.034;7.006;2022-12-29T07:32:05;0.73;;;0.57;;
10661;SDS011;5379;51.034;7.006;2022-12-29T07:34:32;0.50;;;0.50;;
10661;SDS011;5379;51.034;7.006;2022-12-29T07:37:00;1.13;;;0.90;;
10661;SDS011;5379;51.034;7.006;2022-12-29T07:39:27;0.83;;;0.57;;
10661;SDS011;5379;51.034;7.006;2022-12-29T07:41:54;0.70;;;0.60;;
10661;SDS011;5379;51.034;7.006;2022-12-29T07:44:21;0.87;;;0.70;;
10661;SDS011;5379;51.034;7.006;2022-12-29T07:46:48;0.90;;;0.47;;
10661;SDS011;5379;51.034;7.006;2022-12-29T07:49:16;0.77;;;0.77;;
10661;SDS011;5379;51.034;7.006;2022-12-29T07:51:43;1.40;;;0.77;;
10661;SDS011;5379;51.034;7.006;2022-12-29T07:54:10;2.17;;;0.93;;
10661;SDS011;5379;51.034;7.006;2022-12-29T07:56:38;1.27;;;1.13;;
10661;SDS011;5379;51.034;7.006;2022-12-29T07:59:05;1.07;;;0.90;;
10661;SDS011;5379;51.034;7.006;2022-12-29T08:01:32;0.70;;;0.70;;
10661;SDS011;5379;51.034;7.006;2022-12-29T08:03:59;1.17;;;0.80;;
10661;SDS011;5379;51.034;7.006;2022-12-29T08:06:27;2.10;;;1.10;;
10661;SDS011;5379;51.034;7.006;2022-12-29T08:08:59;1.00;;;1.00;;
10661;SDS011;5379;51.034;7.006;2022-12-29T08:11:26;1.63;;;1.03;;
10661;SDS011;5379;51.034;7.006;2022-12-29T08:13:53;1.23;;;1.20;;
10661;SDS011;5379;51.034;7.006;2022-12-29T08:16:20;1.30;;;1.03;;
10661;SDS011;5379;51.034;7.006;2022-12-29T08:18:47;3.90;;;0.90;;
10661;SDS011;5379;51.034;7.006;2022-12-29T08:21:14;2.50;;;1.20;;
10661;SDS011;5379;51.034;7.006;2022-12-29T08:23:42;0.80;;;0.80;;
10661;SDS011;5379;51.034;7.006;2022-12-29T08:26:10;2.10;;;1.20;;
10661;SDS011;5379;51.034;7.006;2022-12-29T08:28:37;0.90;;;0.90;;
10661;SDS011;5379;51.034;7.006;2022-12-29T08:31:04;3.23;;;1.40;;
10661;SDS011;5379;51.034;7.006;2022-12-29T08:33:31;0.70;;;0.70;;
10661;SDS011;5379;51.034;7.006;2022-12-29T08:35:59;0.80;;;0.80;;
10661;SDS011;5379;51.034;7.006;2022-12-29T08:38:27;1.13;;;1.13;;
10661;SDS011;5379;51.034;7.006;2022-12-29T08:40:56;1.30;;;1.20;;
10661;SDS011;5379;51.034;7.006;2022-12-29T08:43:23;1.17;;;1.07;;
10661;SDS011;5379;51.034;7.006;2022-12-29T08:45:51;1.23;;;1.00;;
10661;SDS011;5379;51.034;7.006;2022-12-29T08:48:18;1.20;;;1.10;;
10661;SDS011;5379;51.034;7.006;2022-12-29T08:50:47;5.13;;;1.50;;
10661;SDS011;5379;51.034;7.006;2022-12-29T08:53:15;1.70;;;0.93;;
10661;SDS011;5379;51.034;7.006;2022-12-29T08:55:44;1.40;;;1.10;;
10661;SDS011;5379;51.034;7.006;2022-12-29T08:58:12;2.90;;;1.40;;
10661;SDS011;5379;51.034;7.006;2022-12-29T09:00:41;1.10;;;0.97;;
10661;SDS011;5379;51.034;7.006;2022-12-29T09:03:09;1.23;;;0.90;;
10661;SDS011;5379;51.034;7.006;2022-12-29T09:05:36;1.57;;;1.10;;
10661;SDS011;5379;51.034;7.006;2022-12-29T09:08:03;1.43;;;1.00;;
10661;SDS011;5379;51.034;7.006;2022-12-29T09:10:30;1.40;;;0.90;;
10661;SDS011;5379;51.034;7.006;2022-12-29T09:12:57;2.27;;;1.30;;
10661;SDS011;5379;51.034;7.006;2022-12-29T09:15:26;2.00;;;1.57;;
10661;SDS011;5379;51.034;7.006;2022-12-29T09:17:53;2.30;;;1.43;;
10661;SDS011;5379;51.034;7.006;2022-12-29T09:20:20;2.07;;;1.07;;
10661;SDS011;5379;51.034;7.006;2022-12-29T09:22:48;2.53;;;0.97;;
10661;SDS011;5379;51.034;7.006;2022-12-29T09:25:15;1.20;;;1.00;;
10661;SDS011;5379;51.034;7.006;2022-12-29T09:27:42;1.37;;;1.00;;
10661;SDS011;5379;51.034;7.006;2022-12-29T09:30:10;3.23;;;1.50;;
10661;SDS011;5379;51.034;7.006;2022-12-29T09:32:40;1.37;;;1.27;;
10661;SDS011;5379;51.034;7.006;2022-12-29T09:35:07;1.60;;;1.17;;
10661;SDS011;5379;51.034;7.006;2022-12-29T09:37:34;4.03;;;1.30;;
10661;SDS011;5379;51.034;7.006;2022-12-29T09:40:02;3.97;;;1.37;;
10661;SDS011;5379;51.034;7.006;2022-12-29T09:42:32;1.60;;;1.20;;
10661;SDS011;5379;51.034;7.006;2022-12-29T09:45:08;4.07;;;1.37;;
10661;SDS011;5379;51.034;7.006;2022-12-29T09:47:41;1.40;;;1.30;;
10661;SDS011;5379;51.034;7.006;2022-12-29T09:50:20;2.10;;;1.23;;
10661;SDS011;5379;51.034;7.006;2022-12-29T09:52:52;3.20;;;1.33;;
10661;SDS011;5379;51.034;7.006;2022-12-29T09:55:23;1.60;;;1.00;;
10661;SDS011;5379;51.034;7.006;2022-12-29T09:57:57;1.83;;;1.03;;
10661;SDS011;5379;51.034;7.006;2022-12-29T10:00:32;1.43;;;1.13;;
10661;SDS011;5379;51.034;7.006;2022-12-29T10:03:05;4.70;;;1.83;;
10661;SDS011;5379;51.034;7.006;2022-12-29T10:05:42;1.70;;;1.30;;
10661;SDS011;5379;51.034;7.006;2022-12-29T10:08:17;2.33;;;1.40;;
10661;SDS011;5379;51.034;7.006;2022-12-29T10:10:55;2.97;;;1.47;;
10661;SDS011;5379;51.034;7.006;2022-12-29T10:13:26;1.60;;;0.90;;
10661;SDS011;5379;51.034;7.006;2022-12-29T10:16:01;3.17;;;1.33;;
10661;SDS011;5379;51.034;7.006;2022-12-29T10:18:37;3.00;;;1.60;;
10661;SDS011;5379;51.034;7.006;2022-12-29T10:21:27;2.03;;;1.33;;
10661;SDS011;5379;51.034;7.006;2022-12-29T10:24:03;2.00;;;1.20;;
10661;SDS011;5379;51.034;7.006;2022-12-29T10:26:36;5.00;;;1.47;;
10661;SDS011;5379;51.034;7.006;2022-12-29T10:29:06;2.17;;;1.47;;
10661;SDS011;5379;51.034;7.006;2022-12-29T10:31:39;1.37;;;0.97;;
10661;SDS011;5379;51.034;7.006;2022-12-29T10:34:13;3.27;;;1.40;;
10661;SDS011;5379;51.034;7.006;2022-12-29T10:36:46;3.13;;;1.40;;
10661;SDS011;5379;51.034;7.006;2022-12-29T10:39:16;2.30;;;1.20;;
10661;SDS011;5379;51.034;7.006;2022-12-29T10:41:50;1.60;;;1.47;;
10661;SDS011;5379;51.034;7.006;2022-12-29T10:44:21;2.20;;;1.20;;
10661;SDS011;5379;51.034;7.006;2022-12-29T10:46:52;3.03;;;1.50;;
10661;SDS011;5379;51.034;7.006;2022-12-29T10:49:24;1.00;;;0.93;;
10661;SDS011;5379;51.034;7.006;2022-12-29T10:51:54;2.77;;;1.30;;
10661;SDS011;5379;51.034;7.006;2022-12-29T10:54:25;2.30;;;1.10;;
10661;SDS011;5379;51.034;7.006;2022-12-29T10:56:59;4.00;;;1.23;;
10661;SDS011;5379;51.034;7.006;2022-12-29T10:59:29;2.57;;;1.40;;
10661;SDS011;5379;51.034;7.006;2022-12-29T11:01:59;1.30;;;1.20;;
10661;SDS011;5379;51.034;7.006;2022-12-29T11:04:43;5.40;;;1.27;;
10661;SDS011;5379;51.034;7.006;2022-12-29T11:07:17;2.03;;;1.20;;
10661;SDS011;5379;51.034;7.006;2022-12-29T11:09:45;1.13;;;0.87;;
10661;SDS011;5379;51.034;7.006;2022-12-29T11:12:20;2.73;;;1.10;;
10661;SDS011;5379;51.034;7.006;2022-12-29T11:15:00;11.50;;;1.40;;
10661;SDS011;5379;51.034;7.006;2022-12-29T11:17:38;0.70;;;0.70;;
10661;SDS011;5379;51.034;7.006;2022-12-29T11:20:24;5.97;;;1.47;;
10661;SDS011;5379;51.034;7.006;2022-12-29T11:23:00;1.07;;;0.90;;
10661;SDS011;5379;51.034;7.006;2022-12-29T11:25:28;1.37;;;0.97;;
10661;SDS011;5379;51.034;7.006;2022-12-29T11:27:55;2.10;;;1.10;;
10661;SDS011;5379;51.034;7.006;2022-12-29T11:30:24;1.10;;;0.80;;
10661;SDS011;5379;51.034;7.006;2022-12-29T11:32:53;1.83;;;1.43;;
10661;SDS011;5379;51.034;7.006;2022-12-29T11:35:32;1.60;;;1.10;;
10661;SDS011;5379;51.034;7.006;2022-12-29T11:38:02;2.40;;;1.20;;
10661;SDS011;5379;51.034;7.006;2022-12-29T11:40:30;5.27;;;1.47;;
10661;SDS011;5379;51.034;7.006;2022-12-29T11:43:00;2.07;;;1.40;;
10661;SDS011;5379;51.034;7.006;2022-12-29T11:45:29;3.97;;;1.23;;
10661;SDS011;5379;51.034;7.006;2022-12-29T11:48:00;2.43;;;1.63;;
10661;SDS011;5379;51.034;7.006;2022-12-29T11:50:36;3.57;;;1.83;;
10661;SDS011;5379;51.034;7.006;2022-12-29T11:53:06;8.10;;;1.17;;
10661;SDS011;5379;51.034;7.006;2022-12-29T11:55:40;1.13;;;1.10;;
10661;SDS011;5379;51.034;7.006;2022-12-29T11:58:18;4.47;;;1.40;;
10661;SDS011;5379;51.034;7.006;2022-12-29T12:00:45;2.00;;;1.37;;
10661;SDS011;5379;51.034;7.006;2022-12-29T12:03:16;3.93;;;1.20;;
10661;SDS011;5379;51.034;7.006;2022-12-29T12:05:47;4.83;;;1.23;;
10661;SDS011;5379;51.034;7.006;2022-12-29T12:08:19;1.23;;;0.90;;
10661;SDS011;5379;51.034;7.006;2022-12-29T12:10:55;1.83;;;1.30;;
10661;SDS011;5379;51.034;7.006;2022-12-29T12:13:29;2.73;;;1.63;;
10661;SDS011;5379;51.034;7.006;2022-12-29T12:16:02;6.93;;;1.57;;
10661;SDS011;5379;51.034;7.006;2022-12-29T12:18:34;1.20;;;1.10;;
10661;SDS011;5379;51.034;7.006;2022-12-29T12:21:09;4.60;;;1.40;;
10661;SDS011;5379;51.034;7.006;2022-12-29T12:23:56;1.93;;;1.43;;
10661;SDS011;5379;51.034;7.006;2022-12-29T12:26:56;1.27;;;1.17;;
10661;SDS011;5379;51.034;7.006;2022-12-29T12:29:30;1.40;;;1.03;;
10661;SDS011;5379;51.034;7.006;2022-12-29T12:32:13;2.13;;;1.47;;
10661;SDS011;5379;51.034;7.006;2022-12-29T12:34:44;1.20;;;1.10;;
10661;SDS011;5379;51.034;7.006;2022-12-29T12:37:19;1.23;;;1.00;;
10661;SDS011;5379;51.034;7.006;2022-12-29T12:40:15;3.57;;;1.43;;
10661;SDS011;5379;51.034;7.006;2022-12-29T12:43:04;3.37;;;1.07;;
10661;SDS011;5379;51.034;7.006;2022-12-29T12:45:48;3.70;;;1.40;;
10661;SDS011;5379;51.034;7.006;2022-12-29T12:48:31;1.90;;;0.93;;
10661;SDS011;5379;51.034;7.006;2022-12-29T12:51:23;1.57;;;1.13;;
10661;SDS011;5379;51.034;7.006;2022-12-29T12:54:05;1.93;;;1.60;;
10661;SDS011;5379;51.034;7.006;2022-12-29T12:56:47;2.33;;;1.30;;
10661;SDS011;5379;51.034;7.006;2022-12-29T12:59:37;3.53;;;1.63;;
10661;SDS011;5379;51.034;7.006;2022-12-29T13:02:19;4.70;;;1.53;;
10661;SDS011;5379;51.034;7.006;2022-12-29T13:05:10;1.30;;;0.87;;
10661;SDS011;5379;51.034;7.006;2022-12-29T13:07:49;2.30;;;1.17;;
10661;SDS011;5379;51.034;7.006;2022-12-29T13:10:32;3.40;;;1.20;;
10661;SDS011;5379;51.034;7.006;2022-12-29T13:13:13;1.23;;;1.13;;
10661;SDS011;5379;51.034;7.006;2022-12-29T13:15:57;3.60;;;0.87;;
10661;SDS011;5379;51.034;7.006;2022-12-29T13:18:31;0.63;;;0.40;;
10661;SDS011;5379;51.034;7.006;2022-12-29T13:21:05;1.67;;;1.03;;
10661;SDS011;5379;51.034;7.006;2022-12-29T13:23:41;8.47;;;1.20;;
10661;SDS011;5379;51.034;7.006;2022-12-29T13:26:17;1.47;;;1.03;;
10661;SDS011;5379;51.034;7.006;2022-12-29T13:28:51;2.30;;;1.33;;
10661;SDS011;5379;51.034;7.006;2022-12-29T13:31:24;3.60;;;1.33;;
10661;SDS011;5379;51.034;7.006;2022-12-29T13:34:00;1.80;;;1.37;;
10661;SDS011;5379;51.034;7.006;2022-12-29T13:36:38;2.10;;;1.23;;
10661;SDS011;5379;51.034;7.006;2022-12-29T13:39:10;1.30;;;1.20;;
10661;SDS011;5379;51.034;7.006;2022-12-29T13:41:44;4.57;;;1.40;;
10661;SDS011;5379;51.034;7.006;2022-12-29T13:44:33;3.53;;;1.43;;
10661;SDS011;5379;51.034;7.006;2022-12-29T13:47:10;2.13;;;1.47;;
10661;SDS011;5379;51.034;7.006;2022-12-29T13:49:45;2.17;;;1.53;;
10661;SDS011;5379;51.034;7.006;2022-12-29T13:52:15;2.87;;;1.50;;
10661;SDS011;5379;51.034;7.006;2022-12-29T13:54:51;3.67;;;1.30;;
10661;SDS011;5379;51.034;7.006;2022-12-29T13:57:31;3.00;;;1.40;;
10661;SDS011;5379;51.034;7.006;2022-12-29T14:00:11;1.03;;;0.93;;
10661;SDS011;5379;51.034;7.006;2022-12-29T14:02:44;8.03;;;1.50;;
10661;SDS011;5379;51.034;7.006;2022-12-29T14:05:27;1.90;;;0.97;;
10661;SDS011;5379;51.034;7.006;2022-12-29T14:07:56;0.50;;;0.50;;
10661;SDS011;5379;51.034;7.006;2022-12-29T14:10:29;2.63;;;1.40;;
10661;SDS011;5379;51.034;7.006;2022-12-29T14:13:03;2.40;;;1.20;;
10661;SDS011;5379;51.034;7.006;2022-12-29T14:15:32;5.00;;;1.10;;
10661;SDS011;5379;51.034;7.006;2022-12-29T14:18:16;3.50;;;1.30;;
10661;SDS011;5379;51.034;7.006;2022-12-29T14:20:55;1.13;;;0.93;;
10661;SDS011;5379;51.034;7.006;2022-12-29T14:23:28;2.23;;;1.50;;
10661;SDS011;5379;51.034;7.006;2022-12-29T14:26:15;2.77;;;1.13;;
10661;SDS011;5379;51.034;7.006;2022-12-29T14:28:46;2.37;;;0.97;;
10661;SDS011;5379;51.034;7.006;2022-12-29T14:37:03;1.50;;;0.93;;
10661;SDS011;5379;51.034;7.006;2022-12-29T14:39:31;1.03;;;0.97;;
10661;SDS011;5379;51.034;7.006;2022-12-29T14:42:01;1.33;;;1.23;;
10661;SDS011;5379;51.034;7.006;2022-12-29T14:44:32;5.63;;;1.83;;
10661;SDS011;5379;51.034;7.006;2022-12-29T14:47:01;1.17;;;0.90;;
10661;SDS011;5379;51.034;7.006;2022-12-29T14:49:33;1.53;;;1.20;;
10661;SDS011;5379;51.034;7.006;2022-12-29T14:52:08;2.07;;;1.40;;
10661;SDS011;5379;51.034;7.006;2022-12-29T14:54:52;2.07;;;1.47;;
10661;SDS011;5379;51.034;7.006;2022-12-29T15:00:16;4.00;;;1.63;;
10661;SDS011;5379;51.034;7.006;2022-12-29T15:02:45;4.83;;;1.30;;
10661;SDS011;5379;51.034;7.006;2022-12-29T15:05:26;1.73;;;1.53;;
10661;SDS011;5379;51.034;7.006;2022-12-29T15:07:57;6.30;;;1.43;;
10661;SDS011;5379;51.034;7.006;2022-12-29T15:10:26;5.80;;;1.40;;
10661;SDS011;5379;51.034;7.006;2022-12-29T15:13:00;7.87;;;1.67;;
10661;SDS011;5379;51.034;7.006;2022-12-29T15:15:35;2.73;;;1.33;;
10661;SDS011;5379;51.034;7.006;2022-12-29T15:18:22;2.57;;;1.70;;
10661;SDS011;5379;51.034;7.006;2022-12-29T15:20:51;1.30;;;1.20;;
10661;SDS011;5379;51.034;7.006;2022-12-29T15:23:21;5.53;;;1.43;;
10661;SDS011;5379;51.034;7.006;2022-12-29T15:25:57;1.40;;;1.23;;
10661;SDS011;5379;51.034;7.006;2022-12-29T15:28:25;5.00;;;1.27;;
10661;SDS011;5379;51.034;7.006;2022-12-29T15:30:55;2.37;;;1.63;;
10661;SDS011;5379;51.034;7.006;2022-12-29T15:33:27;2.67;;;1.70;;
10661;SDS011;5379;51.034;7.006;2022-12-29T15:35:55;3.10;;;1.47;;
10661;SDS011;5379;51.034;7.006;2022-12-29T15:38:28;2.90;;;1.43;;
10661;SDS011;5379;51.034;7.006;2022-12-29T15:40:58;1.57;;;0.70;;
10661;SDS011;5379;51.034;7.006;2022-12-29T15:43:33;1.70;;;1.47;;
10661;SDS011;5379;51.034;7.006;2022-12-29T15:46:08;2.83;;;1.40;;
10661;SDS011;5379;51.034;7.006;2022-12-29T15:48:37;2.30;;;1.60;;
10661;SDS011;5379;51.034;7.006;2022-12-29T15:51:09;1.20;;;1.10;;
10661;SDS011;5379;51.034;7.006;2022-12-29T15:53:46;1.60;;;1.50;;
10661;SDS011;5379;51.034;7.006;2022-12-29T15:56:14;1.60;;;1.50;;
10661;SDS011;5379;51.034;7.006;2022-12-29T15:58:43;3.10;;;1.53;;
10661;SDS011;5379;51.034;7.006;2022-12-29T16:01:18;1.93;;;1.43;;
10661;SDS011;5379;51.034;7.006;2022-12-29T16:03:49;2.50;;;1.47;;
10661;SDS011;5379;51.034;7.006;2022-12-29T16:06:28;5.80;;;1.80;;
10661;SDS011;5379;51.034;7.006;2022-12-29T16:08:57;2.10;;;1.17;;
10661;SDS011;5379;51.034;7.006;2022-12-29T16:11:30;2.43;;;1.37;;
10661;SDS011;5379;51.034;7.006;2022-12-29T16:14:00;3.83;;;1.47;;
10661;SDS011;5379;51.034;7.006;2022-12-29T16:16:35;2.50;;;1.60;;
10661;SDS011;5379;51.034;7.006;2022-12-29T16:19:10;2.87;;;1.73;;
10661;SDS011;5379;51.034;7.006;2022-12-29T16:21:40;1.77;;;1.40;;
10661;SDS011;5379;51.034;7.006;2022-12-29T16:24:08;2.57;;;1.33;;
10661;SDS011;5379;51.034;7.006;2022-12-29T16:26:45;6.50;;;2.17;;
10661;SDS011;5379;51.034;7.006;2022-12-29T16:29:14;2.10;;;1.40;;
10661;SDS011;5379;51.034;7.006;2022-12-29T16:31:50;2.70;;;1.70;;
10661;SDS011;5379;51.034;7.006;2022-12-29T16:34:26;4.77;;;1.43;;
10661;SDS011;5379;51.034;7.006;2022-12-29T16:36:56;2.60;;;1.70;;
10661;SDS011;5379;51.034;7.006;2022-12-29T16:39:25;2.33;;;1.77;;
10661;SDS011;5379;51.034;7.006;2022-12-29T16:41:55;4.73;;;2.13;;
10661;SDS011;5379;51.034;7.006;2022-12-29T16:44:23;3.53;;;1.73;;
10661;SDS011;5379;51.034;7.006;2022-12-29T16:47:00;10.77;;;2.07;;
10661;SDS011;5379;51.034;7.006;2022-12-29T16:49:43;3.03;;;1.43;;
10661;SDS011;5379;51.034;7.006;2022-12-29T16:52:17;3.43;;;1.60;;
10661;SDS011;5379;51.034;7.006;2022-12-29T16:54:48;4.10;;;2.10;;
10661;SDS011;5379;51.034;7.006;2022-12-29T16:57:22;3.37;;;1.87;;
10661;SDS011;5379;51.034;7.006;2022-12-29T16:59:52;3.33;;;1.30;;
10661;SDS011;5379;51.034;7.006;2022-12-29T17:02:23;1.77;;;1.50;;
10661;SDS011;5379;51.034;7.006;2022-12-29T17:04:53;4.37;;;1.83;;
10661;SDS011;5379;51.034;7.006;2022-12-29T17:07:21;1.83;;;1.63;;
10661;SDS011;5379;51.034;7.006;2022-12-29T17:09:49;7.37;;;1.87;;
10661;SDS011;5379;51.034;7.006;2022-12-29T17:12:18;4.43;;;2.10;;
10661;SDS011;5379;51.034;7.006;2022-12-29T17:14:47;1.90;;;1.63;;
10661;SDS011;5379;51.034;7.006;2022-12-29T17:17:17;2.13;;;1.80;;
10661;SDS011;5379;51.034;7.006;2022-12-29T17:19:49;3.20;;;1.93;;
10661;SDS011;5379;51.034;7.006;2022-12-29T17:22:18;4.47;;;2.17;;
10661;SDS011;5379;51.034;7.006;2022-12-29T17:24:49;6.37;;;1.90;;
10661;SDS011;5379;51.034;7.006;2022-12-29T17:27:20;2.57;;;1.80;;
10661;SDS011;5379;51.034;7.006;2022-12-29T17:29:55;4.70;;;2.40;;
10661;SDS011;5379;51.034;7.006;2022-12-29T17:32:24;3.50;;;1.80;;
10661;SDS011;5379;51.034;7.006;2022-12-29T17:34:53;5.10;;;1.90;;
10661;SDS011;5379;51.034;7.006;2022-12-29T17:37:30;9.53;;;1.90;;
10661;SDS011;5379;51.034;7.006;2022-12-29T17:39:59;4.50;;;1.83;;
10661;SDS011;5379;51.034;7.006;2022-12-29T17:42:27;6.10;;;2.00;;
10661;SDS011;5379;51.034;7.006;2022-12-29T17:44:57;11.53;;;2.07;;
10661;SDS011;5379;51.034;7.006;2022-12-29T17:47:24;3.50;;;2.03;;
10661;SDS011;5379;51.034;7.006;2022-12-29T17:49:51;2.07;;;1.87;;
10661;SDS011;5379;51.034;7.006;2022-12-29T17:52:20;5.90;;;2.40;;
10661;SDS011;5379;51.034;7.006;2022-12-29T17:54:49;8.30;;;2.17;;
10661;SDS011;5379;51.034;7.006;2022-12-29T17:57:18;3.47;;;2.13;;
10661;SDS011;5379;51.034;7.006;2022-12-29T17:59:46;2.33;;;2.13;;
10661;SDS011;5379;51.034;7.006;2022-12-29T18:02:24;8.30;;;2.23;;
10661;SDS011;5379;51.034;7.006;2022-12-29T18:04:54;4.97;;;1.90;;
10661;SDS011;5379;51.034;7.006;2022-12-29T18:07:23;2.77;;;1.77;;
10661;SDS011;5379;51.034;7.006;2022-12-29T18:09:52;2.47;;;2.00;;
10661;SDS011;5379;51.034;7.006;2022-12-29T18:12:24;7.00;;;2.63;;
10661;SDS011;5379;51.034;7.006;2022-12-29T18:14:54;9.37;;;2.50;;
10661;SDS011;5379;51.034;7.006;2022-12-29T18:17:22;2.83;;;2.27;;
10661;SDS011;5379;51.034;7.006;2022-12-29T18:19:49;6.57;;;2.00;;
10661;SDS011;5379;51.034;7.006;2022-12-29T18:22:19;6.13;;;2.33;;
10661;SDS011;5379;51.034;7.006;2022-12-29T18:24:53;6.17;;;2.50;;
10661;SDS011;5379;51.034;7.006;2022-12-29T18:27:20;7.00;;;2.63;;
10661;SDS011;5379;51.034;7.006;2022-12-29T18:29:47;4.13;;;2.30;;
10661;SDS011;5379;51.034;7.006;2022-12-29T18:32:14;2.53;;;1.87;;
10661;SDS011;5379;51.034;7.006;2022-12-29T18:34:42;3.17;;;2.00;;
10661;SDS011;5379;51.034;7.006;2022-12-29T18:37:09;8.43;;;2.83;;
10661;SDS011;5379;51.034;7.006;2022-12-29T18:39:38;5.33;;;2.43;;
10661;SDS011;5379;51.034;7.006;2022-12-29T18:42:05;8.97;;;2.70;;
10661;SDS011;5379;51.034;7.006;2022-12-29T18:44:33;2.23;;;2.03;;
10661;SDS011;5379;51.034;7.006;2022-12-29T18:47:00;6.17;;;2.77;;
10661;SDS011;5379;51.034;7.006;2022-12-29T18:49:27;10.27;;;3.40;;
10661;SDS011;5379;51.034;7.006;2022-12-29T18:51:54;10.93;;;2.47;;
10661;SDS011;5379;51.034;7.006;2022-12-29T18:54:24;5.10;;;2.60;;
10661;SDS011;5379;51.034;7.006;2022-12-29T18:56:55;13.53;;;2.83;;
10661;SDS011;5379;51.034;7.006;2022-12-29T18:59:23;6.53;;;2.73;;
10661;SDS011;5379;51.034;7.006;2022-12-29T19:01:50;5.97;;;2.60;;
10661;SDS011;5379;51.034;7.006;2022-12-29T19:04:17;2.63;;;2.13;;
10661;SDS011;5379;51.034;7.006;2022-12-29T19:06:46;11.30;;;2.73;;
10661;SDS011;5379;51.034;7.006;2022-12-29T19:09:13;3.77;;;2.10;;
10661;SDS011;5379;51.034;7.006;2022-12-29T19:11:40;3.03;;;2.07;;
10661;SDS011;5379;51.034;7.006;2022-12-29T19:16:42;5.00;;;2.90;;
10661;SDS011;5379;51.034;7.006;2022-12-29T19:19:13;4.73;;;3.27;;
10661;SDS011;5379;51.034;7.006;2022-12-29T19:21:41;6.67;;;2.93;;
10661;SDS011;5379;51.034;7.006;2022-12-29T19:24:08;7.87;;;2.33;;
10661;SDS011;5379;51.034;7.006;2022-12-29T19:26:35;6.60;;;1.90;;
10661;SDS011;5379;51.034;7.006;2022-12-29T19:29:04;6.03;;;2.30;;
10661;SDS011;5379;51.034;7.006;2022-12-29T19:31:34;4.10;;;2.30;;
10661;SDS011;5379;51.034;7.006;2022-12-29T19:34:03;5.77;;;3.13;;
10661;SDS011;5379;51.034;7.006;2022-12-29T19:36:30;3.30;;;2.23;;
10661;SDS011;5379;51.034;7.006;2022-12-29T19:38:57;3.87;;;2.60;;